createdAt,value
2023-01-03T00:00:49.824Z,5.78
2023-01-03T00:03:17.207Z,5.88
2023-01-03T00:05:46.021Z,5.85
2023-01-03T00:08:12.829Z,6.03
2023-01-03T00:10:39.695Z,5.60
2023-01-03T00:13:06.223Z,5.85
2023-01-03T00:15:36.664Z,5.93
2023-01-03T00:18:03.897Z,5.72
2023-01-03T00:20:30.727Z,5.28
2023-01-03T00:22:57.295Z,5.22
2023-01-03T00:25:23.811Z,5.65
2023-01-03T00:27:50.307Z,5.32
2023-01-03T00:30:17.032Z,4.60
2023-01-03T00:32:43.552Z,5.20
2023-01-03T00:35:10.170Z,5.22
2023-01-03T00:37:37.075Z,4.70
2023-01-03T00:40:04.214Z,5.07
2023-01-03T00:42:51.061Z,4.78
2023-01-03T00:45:19.865Z,5.20
2023-01-03T00:47:47.231Z,4.45
2023-01-03T00:50:13.806Z,5.05
2023-01-03T00:52:40.311Z,4.13
2023-01-03T00:55:07.171Z,4.80
2023-01-03T00:57:33.675Z,4.88
2023-01-03T01:00:00.185Z,4.00
2023-01-03T01:02:26.849Z,4.60
2023-01-03T01:04:53.767Z,4.13
2023-01-03T01:07:20.252Z,4.45
2023-01-03T01:09:46.982Z,4.63
2023-01-03T01:12:13.601Z,3.83
2023-01-03T01:14:40.172Z,3.70
2023-01-03T01:17:08.702Z,3.97
2023-01-03T01:19:38.120Z,4.28
2023-01-03T01:22:05.347Z,4.00
2023-01-03T01:24:32.020Z,4.15
2023-01-03T01:26:58.570Z,3.83
2023-01-03T01:29:25.201Z,3.83
2023-01-03T01:31:51.996Z,3.90
2023-01-03T01:34:18.695Z,4.05
2023-01-03T01:36:46.715Z,3.80
2023-01-03T01:39:18.966Z,4.07
2023-01-03T01:42:05.702Z,3.63
2023-01-03T01:44:57.140Z,3.42
2023-01-03T01:47:32.843Z,3.70
2023-01-03T01:50:23.823Z,3.88
2023-01-03T01:53:08.286Z,3.17
2023-01-03T01:55:57.247Z,3.70
2023-01-03T01:58:27.767Z,3.55
2023-01-03T02:00:55.103Z,3.80
2023-01-03T02:03:21.783Z,3.20
2023-01-03T02:05:52.163Z,3.17
2023-01-03T02:08:19.157Z,3.50
2023-01-03T02:11:23.144Z,3.55
2023-01-03T02:13:52.467Z,3.63
2023-01-03T02:16:41.867Z,3.00
2023-01-03T02:19:17.215Z,3.15
2023-01-03T02:22:02.474Z,3.33
2023-01-03T02:25:07.476Z,3.40
2023-01-03T02:27:36.943Z,2.47
2023-01-03T02:30:34.164Z,2.70
2023-01-03T02:33:22.570Z,2.85
2023-01-03T02:36:07.996Z,3.35
2023-01-03T02:38:34.452Z,2.85
2023-01-03T02:41:22.848Z,3.03
2023-01-03T02:44:00.055Z,2.80
2023-01-03T02:46:54.428Z,3.03
2023-01-03T02:51:53.255Z,3.28
2023-01-03T02:54:30.744Z,2.60
2023-01-03T02:57:10.644Z,2.80
2023-01-03T02:59:42.773Z,3.00
2023-01-03T03:02:12.075Z,3.10
2023-01-03T03:04:40.593Z,2.65
2023-01-03T03:07:31.751Z,2.47
2023-01-03T03:10:17.130Z,3.17
2023-01-03T03:13:06.626Z,3.35
2023-01-03T03:15:38.178Z,3.00
2023-01-03T03:18:19.744Z,3.08
2023-01-03T03:21:05.091Z,3.10
2023-01-03T03:23:53.889Z,3.40
2023-01-03T03:26:25.813Z,3.75
2023-01-03T03:28:59.029Z,3.15
2023-01-03T03:31:33.879Z,3.55
2023-01-03T03:34:14.741Z,3.40
2023-01-03T03:36:43.853Z,3.40
2023-01-03T03:39:32.288Z,3.53
2023-01-03T03:42:59.587Z,3.35
2023-01-03T03:45:41.003Z,3.30
2023-01-03T03:48:54.783Z,3.90
2023-01-03T03:51:23.636Z,3.40
2023-01-03T03:53:51.823Z,3.88
2023-01-03T03:56:23.802Z,3.30
2023-01-03T03:58:56.625Z,3.35
2023-01-03T04:01:25.167Z,3.37
2023-01-03T04:03:56.074Z,3.38
2023-01-03T04:06:37.474Z,3.38
2023-01-03T04:09:04.165Z,3.33
2023-01-03T04:11:30.737Z,3.22
2023-01-03T04:13:57.254Z,2.70
2023-01-03T04:16:23.804Z,3.50
2023-01-03T04:18:50.364Z,3.67
2023-01-03T04:21:20.727Z,3.38
2023-01-03T04:23:48.117Z,3.15
2023-01-03T04:26:14.701Z,3.13
2023-01-03T04:28:41.231Z,3.30
2023-01-03T04:31:07.778Z,3.65
2023-01-03T04:33:34.503Z,3.38
2023-01-03T04:36:01.020Z,3.70
2023-01-03T04:38:27.521Z,3.10
2023-01-03T04:40:54.036Z,3.10
2023-01-03T04:43:38.979Z,3.20
2023-01-03T04:46:05.716Z,2.95
2023-01-03T04:48:32.277Z,3.33
2023-01-03T04:50:59.938Z,3.35
2023-01-03T04:53:27.555Z,3.30
2023-01-03T04:55:56.815Z,3.53
2023-01-03T04:58:24.166Z,3.28
2023-01-03T05:00:50.834Z,3.20
2023-01-03T05:03:21.250Z,3.03
2023-01-03T05:05:52.361Z,3.30
2023-01-03T05:08:18.914Z,3.38
2023-01-03T05:10:45.456Z,3.10
2023-01-03T05:13:12.051Z,3.05
2023-01-03T05:15:39.667Z,3.50
2023-01-03T05:18:06.524Z,2.97
2023-01-03T05:20:54.896Z,3.05
2023-01-03T05:23:41.232Z,3.47
2023-01-03T05:26:14.408Z,2.75
2023-01-03T05:28:42.749Z,2.70
2023-01-03T05:31:09.311Z,2.80
2023-01-03T05:33:39.088Z,3.35
2023-01-03T05:36:06.859Z,3.05
2023-01-03T05:38:33.608Z,3.10
2023-01-03T05:41:00.171Z,3.00
2023-01-03T05:43:26.714Z,2.90
2023-01-03T05:45:53.710Z,3.10
2023-01-03T05:48:21.163Z,3.33
2023-01-03T05:50:49.812Z,3.33
2023-01-03T05:53:16.730Z,3.17
2023-01-03T05:55:43.299Z,2.90
2023-01-03T05:58:12.211Z,3.75
2023-01-03T06:00:38.710Z,3.08
2023-01-03T06:03:05.339Z,3.03
2023-01-03T06:05:31.891Z,3.08
2023-01-03T06:08:01.759Z,3.17
2023-01-03T06:10:28.709Z,2.67
2023-01-03T06:12:55.350Z,2.42
2023-01-03T06:15:22.032Z,3.00
2023-01-03T06:18:02.390Z,2.95
2023-01-03T06:20:29.842Z,3.50
2023-01-03T06:22:56.807Z,3.42
2023-01-03T06:25:23.477Z,2.60
2023-01-03T06:27:50.047Z,2.90
2023-01-03T06:30:16.615Z,3.13
2023-01-03T06:32:44.442Z,2.67
2023-01-03T06:35:13.872Z,2.70
2023-01-03T06:37:40.449Z,2.90
2023-01-03T06:40:07.799Z,3.22
2023-01-03T06:42:42.830Z,2.78
2023-01-03T06:45:32.950Z,3.05
2023-01-03T06:48:23.189Z,2.63
2023-01-03T06:51:08.559Z,2.95
2023-01-03T06:53:38.165Z,3.20
2023-01-03T06:56:05.780Z,2.90
2023-01-03T06:58:32.742Z,2.88
2023-01-03T07:01:04.772Z,2.67
2023-01-03T07:03:32.740Z,2.58
2023-01-03T07:05:59.268Z,2.97
2023-01-03T07:08:25.795Z,2.70
2023-01-03T07:10:52.352Z,2.75
2023-01-03T07:13:37.418Z,2.50
2023-01-03T07:16:04.114Z,2.92
2023-01-03T07:18:31.862Z,2.60
2023-01-03T07:20:58.388Z,2.85
2023-01-03T07:23:25.056Z,2.72
2023-01-03T07:25:55.452Z,2.70
2023-01-03T07:28:22.056Z,2.75
2023-01-03T07:30:48.656Z,2.05
2023-01-03T07:33:16.012Z,2.30
2023-01-03T07:35:42.576Z,2.70
2023-01-03T07:38:11.184Z,2.60
2023-01-03T07:40:37.910Z,2.90
2023-01-03T07:43:23.336Z,2.45
2023-01-03T07:45:49.886Z,2.78
2023-01-03T07:48:16.390Z,2.90
2023-01-03T07:50:42.865Z,2.85
2023-01-03T07:53:10.100Z,2.88
2023-01-03T07:55:37.569Z,2.80
2023-01-03T07:58:04.552Z,2.72
2023-01-03T08:00:31.353Z,3.10
2023-01-03T08:02:58.032Z,3.35
2023-01-03T08:05:25.693Z,3.00
2023-01-03T08:07:53.253Z,3.00
2023-01-03T08:10:40.060Z,2.90
2023-01-03T08:13:19.032Z,2.47
2023-01-03T08:15:55.889Z,2.60
2023-01-03T08:18:27.755Z,2.72
2023-01-03T08:20:56.570Z,2.90
2023-01-03T08:23:24.253Z,3.20
2023-01-03T08:25:51.377Z,2.80
2023-01-03T08:28:18.333Z,2.83
2023-01-03T08:30:48.364Z,2.83
2023-01-03T08:33:17.288Z,2.25
2023-01-03T08:35:50.946Z,2.42
2023-01-03T08:38:22.881Z,2.92
2023-01-03T08:40:49.511Z,2.92
2023-01-03T08:43:17.752Z,3.15
2023-01-03T08:45:44.509Z,2.70
2023-01-03T08:48:11.718Z,3.00
2023-01-03T08:50:38.985Z,2.90
2023-01-03T08:53:05.908Z,2.60
2023-01-03T08:55:33.222Z,3.20
2023-01-03T08:58:00.454Z,3.30
2023-01-03T09:00:28.281Z,3.33
2023-01-03T09:02:59.802Z,3.55
2023-01-03T09:05:27.978Z,3.13
2023-01-03T09:07:55.677Z,3.58
2023-01-03T09:10:23.176Z,3.25
2023-01-03T09:12:50.321Z,3.40
2023-01-03T09:15:16.974Z,3.10
2023-01-03T09:17:45.302Z,2.80
2023-01-03T09:20:13.437Z,3.13
2023-01-03T09:22:40.608Z,3.67
2023-01-03T09:25:07.971Z,3.85
2023-01-03T09:27:34.808Z,3.92
2023-01-03T09:30:01.353Z,3.90
2023-01-03T09:32:28.061Z,3.95
2023-01-03T09:34:54.626Z,4.07
2023-01-03T09:37:21.160Z,4.00
2023-01-03T09:39:47.812Z,4.07
2023-01-03T09:42:40.277Z,3.67
2023-01-03T09:45:10.747Z,4.82
2023-01-03T09:47:39.299Z,5.00
2023-01-03T09:50:29.510Z,5.70
2023-01-03T09:53:16.866Z,5.68
2023-01-03T09:56:25.551Z,6.47
2023-01-03T09:59:14.961Z,6.22
2023-01-03T10:02:26.233Z,5.97
2023-01-03T10:05:14.283Z,7.40
2023-01-03T10:08:02.542Z,7.00
2023-01-03T10:10:35.172Z,6.60
2023-01-03T10:16:06.423Z,6.95
2023-01-03T10:18:45.108Z,7.05
2023-01-03T10:21:48.516Z,7.20
2023-01-03T10:24:24.841Z,6.95
2023-01-03T10:26:56.082Z,7.22
2023-01-03T10:29:22.616Z,7.05
2023-01-03T10:32:04.488Z,7.25
2023-01-03T10:34:31.140Z,7.10
2023-01-03T10:36:57.750Z,7.45
2023-01-03T10:39:31.939Z,7.60
2023-01-03T10:41:59.932Z,7.03
2023-01-03T10:44:31.854Z,7.28
2023-01-03T10:47:16.121Z,7.75
2023-01-03T10:49:46.489Z,7.95
2023-01-03T10:52:18.114Z,7.82
2023-01-03T10:54:54.786Z,7.75
2023-01-03T10:57:44.292Z,7.00
2023-01-03T11:00:30.287Z,8.23
2023-01-03T11:03:12.427Z,7.38
2023-01-03T11:05:41.360Z,8.00
2023-01-03T11:08:21.210Z,7.93
2023-01-03T11:10:58.672Z,8.02
2023-01-03T11:13:38.889Z,8.85
2023-01-03T11:16:16.912Z,9.30
2023-01-03T11:18:44.702Z,10.07
2023-01-03T11:21:26.128Z,10.68
2023-01-03T11:24:07.616Z,10.48
2023-01-03T11:27:00.487Z,11.27
2023-01-03T11:29:35.983Z,9.70
2023-01-03T11:32:02.818Z,10.52
2023-01-03T11:35:22.751Z,10.05
2023-01-03T11:38:25.458Z,10.80
2023-01-03T11:41:16.557Z,10.50
2023-01-03T11:44:12.651Z,9.80
2023-01-03T11:46:48.526Z,11.15
2023-01-03T11:49:17.751Z,11.13
2023-01-03T11:52:06.170Z,11.60
2023-01-03T11:54:41.886Z,10.95
2023-01-03T11:57:28.861Z,10.60
2023-01-03T12:00:11.466Z,11.52
2023-01-03T12:03:23.253Z,10.27
2023-01-03T12:06:28.912Z,10.55
2023-01-03T12:09:20.769Z,10.80
2023-01-03T12:12:13.124Z,10.02
2023-01-03T12:14:57.878Z,9.82
2023-01-03T12:17:33.947Z,10.27
2023-01-03T12:20:11.093Z,10.02
2023-01-03T12:23:01.843Z,9.63
2023-01-03T12:25:36.604Z,10.07
2023-01-03T12:28:13.311Z,8.77
2023-01-03T12:30:46.282Z,8.93
2023-01-03T12:33:18.814Z,9.00
2023-01-03T12:36:00.260Z,9.05
2023-01-03T12:38:32.751Z,8.43
2023-01-03T12:41:11.996Z,9.15
2023-01-03T12:43:48.898Z,10.45
2023-01-03T12:46:23.968Z,10.20
2023-01-03T12:49:15.129Z,9.82
2023-01-03T12:51:41.689Z,10.02
2023-01-03T12:54:39.113Z,9.02
2023-01-03T12:57:26.595Z,9.20
2023-01-03T13:00:11.221Z,9.90
2023-01-03T13:02:43.789Z,9.15
2023-01-03T13:05:50.534Z,9.02
2023-01-03T13:08:37.834Z,9.63
2023-01-03T13:11:12.197Z,9.15
2023-01-03T13:13:59.480Z,9.45
2023-01-03T13:16:37.353Z,9.07
2023-01-03T13:19:22.340Z,9.63
2023-01-03T13:21:54.631Z,8.85
2023-01-03T13:24:46.874Z,8.40
2023-01-03T13:27:19.481Z,7.50
2023-01-03T13:29:48.792Z,7.60
2023-01-03T13:32:21.275Z,8.73
2023-01-03T13:34:53.703Z,7.68
2023-01-03T13:37:22.814Z,7.47
2023-01-03T13:39:52.092Z,8.13
2023-01-03T13:42:27.677Z,8.02
2023-01-03T13:45:15.947Z,7.47
2023-01-03T13:47:47.330Z,7.20
2023-01-03T13:50:29.130Z,6.90
2023-01-03T13:52:57.264Z,6.32
2023-01-03T13:55:49.258Z,6.35
2023-01-03T13:58:32.507Z,6.75
2023-01-03T14:01:06.032Z,6.72
2023-01-03T14:03:33.147Z,6.78
2023-01-03T14:06:06.224Z,7.28
2023-01-03T14:09:11.188Z,6.82
2023-01-03T14:12:03.492Z,6.30
2023-01-03T14:14:37.802Z,6.53
2023-01-03T14:17:09.786Z,6.50
2023-01-03T14:19:40.371Z,6.35
2023-01-03T14:22:28.244Z,6.05
2023-01-03T14:24:57.913Z,5.60
2023-01-03T14:27:31.781Z,5.60
2023-01-03T14:32:34.059Z,5.25
2023-01-03T14:35:01.797Z,5.78
2023-01-03T14:37:28.380Z,5.65
2023-01-03T14:39:57.418Z,5.85
2023-01-03T14:42:24.547Z,6.20
2023-01-03T14:44:56.114Z,5.75
2023-01-03T14:47:28.863Z,6.43
2023-01-03T14:49:55.762Z,7.05
2023-01-03T14:52:38.607Z,6.45
2023-01-03T14:55:09.429Z,6.47
2023-01-03T14:57:40.318Z,6.25
2023-01-03T15:00:11.849Z,5.82
2023-01-03T15:02:40.723Z,6.15
2023-01-03T15:05:35.284Z,6.38
2023-01-03T15:08:22.604Z,5.85
2023-01-03T15:10:49.102Z,6.32
2023-01-03T15:13:30.664Z,5.70
2023-01-03T15:16:00.063Z,5.45
2023-01-03T15:18:33.111Z,6.72
2023-01-03T15:21:01.866Z,6.13
2023-01-03T15:23:43.387Z,5.90
2023-01-03T15:26:35.998Z,5.28
2023-01-03T15:29:13.319Z,5.75
2023-01-03T15:31:54.693Z,6.18
2023-01-03T15:34:30.151Z,5.97
2023-01-03T15:36:59.210Z,5.72
2023-01-03T15:39:50.477Z,5.55
2023-01-03T15:42:45.164Z,5.10
2023-01-03T15:45:19.621Z,5.07
2023-01-03T15:47:48.006Z,5.30
2023-01-03T15:50:18.881Z,5.25
2023-01-03T15:52:46.458Z,5.10
2023-01-03T15:55:14.445Z,5.88
2023-01-03T15:57:42.135Z,4.97
2023-01-03T16:00:14.566Z,4.80
2023-01-03T16:02:41.231Z,4.68
2023-01-03T16:05:17.928Z,5.22
2023-01-03T16:07:48.377Z,4.60
2023-01-03T16:10:14.990Z,5.03
2023-01-03T16:12:43.012Z,4.68
2023-01-03T16:15:22.001Z,4.50
2023-01-03T16:17:50.563Z,4.45
2023-01-03T16:20:18.933Z,4.00
2023-01-03T16:22:59.666Z,3.63
2023-01-03T16:25:27.514Z,3.83
2023-01-03T16:27:54.041Z,4.53
2023-01-03T16:30:20.648Z,3.70
2023-01-03T16:32:47.277Z,4.28
2023-01-03T16:35:19.766Z,4.07
2023-01-03T16:37:46.335Z,4.07
2023-01-03T16:40:19.007Z,3.80
2023-01-03T16:42:45.877Z,4.00
2023-01-03T16:45:12.511Z,3.65
2023-01-03T16:47:39.413Z,4.00
2023-01-03T16:50:18.968Z,3.55
2023-01-03T16:52:50.365Z,3.55
2023-01-03T16:55:32.592Z,3.20
2023-01-03T16:57:59.839Z,3.22
2023-01-03T17:00:29.629Z,3.20
2023-01-03T17:02:56.825Z,3.65
2023-01-03T17:05:23.728Z,3.67
2023-01-03T17:07:56.711Z,3.42
2023-01-03T17:10:29.933Z,3.30
2023-01-03T17:12:57.992Z,3.10
2023-01-03T17:15:24.812Z,3.80
2023-01-03T17:17:51.397Z,3.08
2023-01-03T17:20:20.129Z,3.25
2023-01-03T17:22:59.476Z,3.35
2023-01-03T17:25:26.227Z,3.00
2023-01-03T17:27:56.651Z,3.40
2023-01-03T17:30:25.876Z,3.10
2023-01-03T17:32:52.686Z,3.47
2023-01-03T17:35:19.222Z,4.03
2023-01-03T17:38:23.317Z,4.65
2023-01-03T17:40:34.154Z,4.95
2023-01-03T17:43:02.060Z,4.68
2023-01-03T17:45:47.580Z,5.38
2023-01-03T17:48:33.254Z,5.72
2023-01-03T17:51:01.535Z,5.60
2023-01-03T17:53:28.746Z,5.57
2023-01-03T17:55:55.441Z,6.10
2023-01-03T17:58:31.251Z,5.85
2023-01-03T18:00:58.044Z,6.82
2023-01-03T18:03:25.153Z,6.45
2023-01-03T18:05:52.698Z,6.20
2023-01-03T18:08:22.153Z,7.07
2023-01-03T18:10:49.427Z,6.80
2023-01-03T18:13:32.778Z,6.00
2023-01-03T18:15:59.808Z,6.22
2023-01-03T18:18:28.038Z,6.55
2023-01-03T18:20:55.922Z,6.68
2023-01-03T18:23:32.850Z,6.20
2023-01-03T18:26:05.858Z,6.40
2023-01-03T18:28:32.708Z,6.43
2023-01-03T18:30:59.430Z,5.65
2023-01-03T18:33:26.249Z,5.18
2023-01-03T18:35:53.546Z,5.93
2023-01-03T18:38:26.588Z,5.15
2023-01-03T18:40:59.042Z,5.50
2023-01-03T18:43:28.984Z,5.57
2023-01-03T18:45:55.641Z,5.65
2023-01-03T18:48:23.104Z,5.97
2023-01-03T18:50:57.913Z,5.57
2023-01-03T18:53:31.166Z,5.10
2023-01-03T18:55:58.393Z,4.97
2023-01-03T18:58:30.066Z,5.03
2023-01-03T19:00:56.825Z,4.68
2023-01-03T19:03:26.447Z,4.65
2023-01-03T19:05:55.374Z,4.55
2023-01-03T19:08:24.765Z,5.15
2023-01-03T19:10:51.967Z,4.65
2023-01-03T19:13:49.756Z,5.80
2023-01-03T19:16:22.302Z,4.78
2023-01-03T19:18:49.747Z,4.82
2023-01-03T19:21:17.898Z,4.35
2023-01-03T19:23:47.777Z,4.20
2023-01-03T19:26:32.093Z,4.82
2023-01-03T19:29:03.171Z,4.85
2023-01-03T19:31:39.201Z,3.85
2023-01-03T19:34:14.203Z,4.22
2023-01-03T19:36:40.763Z,4.65
2023-01-03T19:39:09.178Z,3.88
2023-01-03T19:42:18.762Z,4.30
2023-01-03T19:44:45.513Z,3.67
2023-01-03T19:47:17.669Z,3.80
2023-01-03T19:49:48.512Z,4.20
2023-01-03T19:52:16.133Z,3.90
2023-01-03T19:54:43.141Z,4.00
2023-01-03T19:57:33.439Z,4.10
2023-01-03T20:00:01.198Z,3.92
2023-01-03T20:02:39.199Z,4.28
2023-01-03T20:05:17.894Z,3.92
2023-01-03T20:07:47.532Z,4.85
2023-01-03T20:10:20.084Z,4.72
2023-01-03T20:12:48.862Z,4.85
2023-01-03T20:15:19.875Z,4.45
2023-01-03T20:17:46.935Z,4.65
2023-01-03T20:20:13.977Z,4.55
2023-01-03T20:25:31.917Z,5.57
2023-01-03T20:28:00.394Z,4.68
2023-01-03T20:30:29.514Z,4.88
2023-01-03T20:32:56.115Z,5.25
2023-01-03T20:38:12.350Z,5.68
2023-01-03T20:40:39.210Z,4.72
2023-01-03T20:43:05.879Z,5.30
2023-01-03T20:45:32.839Z,5.13
2023-01-03T20:47:59.796Z,5.03
2023-01-03T20:50:28.503Z,4.32
2023-01-03T20:52:55.929Z,5.22
2023-01-03T20:55:23.789Z,4.47
2023-01-03T20:57:50.710Z,4.53
2023-01-03T21:00:21.786Z,4.97
2023-01-03T21:05:17.082Z,4.65
2023-01-03T21:08:02.641Z,4.30
2023-01-03T21:10:32.891Z,3.85
2023-01-03T21:12:59.633Z,4.78
2023-01-03T21:15:26.167Z,4.05
2023-01-03T21:17:52.713Z,4.53
2023-01-03T21:20:25.118Z,4.18
2023-01-03T21:22:51.756Z,3.78
2023-01-03T21:25:26.606Z,3.58
2023-01-03T21:27:54.089Z,3.75
2023-01-03T21:30:22.750Z,3.75
2023-01-03T21:32:49.876Z,3.60
2023-01-03T21:35:20.143Z,3.63
2023-01-03T21:37:47.432Z,3.72
2023-01-03T21:40:23.775Z,3.70
2023-01-03T21:43:04.231Z,3.75
2023-01-03T21:45:48.180Z,3.00
2023-01-03T21:48:17.707Z,2.87
2023-01-03T21:50:46.418Z,3.53
2023-01-03T21:53:15.092Z,3.53
2023-01-03T21:55:41.698Z,3.58
2023-01-03T21:58:08.659Z,3.05
2023-01-03T22:00:35.355Z,3.55
2023-01-03T22:03:20.259Z,3.90
2023-01-03T22:05:46.823Z,3.17
2023-01-03T22:08:13.366Z,3.45
2023-01-03T22:10:42.141Z,3.70
2023-01-03T22:13:11.305Z,2.97
2023-01-03T22:15:39.147Z,3.40
2023-01-03T22:18:07.655Z,3.20
2023-01-03T22:20:38.460Z,2.95
2023-01-03T22:23:06.711Z,3.28
2023-01-03T22:25:33.325Z,3.80
2023-01-03T22:28:00.357Z,3.20
2023-01-03T22:30:27.122Z,3.42
2023-01-03T22:32:57.496Z,2.80
2023-01-03T22:35:24.298Z,3.42
2023-01-03T22:37:50.844Z,3.55
2023-01-03T22:40:17.685Z,2.80
2023-01-03T22:42:44.442Z,3.40
2023-01-03T22:45:11.598Z,3.10
2023-01-03T22:47:38.567Z,2.85
2023-01-03T22:50:07.153Z,2.83
2023-01-03T22:52:34.926Z,2.75
2023-01-03T22:55:01.538Z,2.80
2023-01-03T22:57:28.109Z,2.92
2023-01-03T22:59:54.681Z,2.63
2023-01-03T23:02:26.297Z,2.55
2023-01-03T23:04:55.499Z,2.70
2023-01-03T23:07:22.026Z,3.03
2023-01-03T23:09:48.653Z,2.70
2023-01-03T23:12:33.797Z,3.30
2023-01-03T23:15:00.329Z,3.50
2023-01-03T23:17:45.444Z,3.38
2023-01-03T23:20:12.421Z,3.42
2023-01-03T23:22:38.950Z,3.25
2023-01-03T23:25:05.978Z,3.33
2023-01-03T23:27:32.526Z,4.40
2023-01-03T23:29:59.098Z,3.47
2023-01-03T23:32:25.653Z,3.42
2023-01-03T23:34:52.189Z,3.13
2023-01-03T23:37:18.707Z,3.20
2023-01-03T23:39:45.177Z,2.88
2023-01-03T23:42:11.752Z,3.30
2023-01-03T23:44:38.284Z,2.95
2023-01-03T23:47:11.126Z,2.97
2023-01-03T23:52:05.047Z,2.70
2023-01-03T23:54:31.549Z,2.78
2023-01-03T23:56:58.121Z,2.65
2023-01-03T23:59:24.586Z,3.03
